createdAt,value
2022-09-01T00:00:50.621Z,2.95
2022-09-01T00:05:55.168Z,3.03
2022-09-01T00:10:56.793Z,2.78
2022-09-01T00:15:59.192Z,2.63
2022-09-01T00:21:00.945Z,2.67
2022-09-01T00:26:02.631Z,2.85
2022-09-01T00:31:06.447Z,2.80
2022-09-01T00:36:08.303Z,2.70
2022-09-01T00:41:10.399Z,2.50
2022-09-01T00:46:20.460Z,2.80
2022-09-01T00:51:24.439Z,2.83
2022-09-01T00:56:26.551Z,2.88
2022-09-01T01:01:28.587Z,2.55
2022-09-01T01:06:32.259Z,2.53
2022-09-01T01:11:33.933Z,2.70
2022-09-01T01:16:35.998Z,2.65
2022-09-01T01:22:02.533Z,3.05
2022-09-01T01:27:05.278Z,2.30
2022-09-01T01:32:13.372Z,2.33
2022-09-01T01:37:15.243Z,2.10
2022-09-01T01:42:16.849Z,2.67
2022-09-01T01:47:20.324Z,2.60
2022-09-01T01:52:26.221Z,2.70
2022-09-01T01:57:32.029Z,1.92
2022-09-01T02:02:33.690Z,2.47
2022-09-01T02:07:35.424Z,2.38
2022-09-01T02:12:37.869Z,2.88
2022-09-01T02:17:39.866Z,2.60
2022-09-01T02:22:44.322Z,2.15
2022-09-01T02:27:49.469Z,2.40
2022-09-01T02:32:51.117Z,2.50
2022-09-01T02:37:58.295Z,2.78
2022-09-01T02:43:00.912Z,2.45
2022-09-01T02:48:02.816Z,2.55
2022-09-01T02:53:09.826Z,1.95
2022-09-01T02:58:14.185Z,2.17
2022-09-01T03:03:19.695Z,2.22
2022-09-01T03:08:24.676Z,2.42
2022-09-01T03:13:27.436Z,2.58
2022-09-01T03:18:29.074Z,2.58
2022-09-01T03:23:34.912Z,2.22
2022-09-01T03:28:37.823Z,2.38
2022-09-01T03:33:39.567Z,2.35
2022-09-01T03:38:44.094Z,2.47
2022-09-01T03:43:48.466Z,2.50
2022-09-01T03:48:53.083Z,2.22
2022-09-01T03:53:55.178Z,2.25
2022-09-01T03:58:59.913Z,2.67
2022-09-01T04:04:01.758Z,2.55
2022-09-01T04:09:03.619Z,2.38
2022-09-01T04:14:06.408Z,2.10
2022-09-01T04:19:20.304Z,2.83
2022-09-01T04:24:25.095Z,2.85
2022-09-01T04:29:29.892Z,2.80
2022-09-01T04:34:41.732Z,2.90
2022-09-01T04:39:55.607Z,2.92
2022-09-01T04:45:02.022Z,2.30
2022-09-01T04:50:17.528Z,2.75
2022-09-01T04:55:19.678Z,3.03
2022-09-01T05:00:25.152Z,2.78
2022-09-01T05:05:27.804Z,2.92
2022-09-01T05:10:30.318Z,2.78
2022-09-01T05:15:32.746Z,2.95
2022-09-01T05:20:38.313Z,2.83
2022-09-01T05:25:44.640Z,2.83
2022-09-01T05:30:48.414Z,2.85
2022-09-01T05:36:02.112Z,3.00
2022-09-01T05:41:08.627Z,2.88
2022-09-01T05:46:10.244Z,2.90
2022-09-01T05:51:40.364Z,2.72
2022-09-01T05:56:44.037Z,3.33
2022-09-01T06:01:50.190Z,2.77
2022-09-01T06:07:05.620Z,3.00
2022-09-01T06:12:18.419Z,2.45
2022-09-01T06:17:24.869Z,2.67
2022-09-01T06:22:28.459Z,2.60
2022-09-01T06:27:30.302Z,3.00
2022-09-01T06:32:33.776Z,2.67
2022-09-01T06:37:35.368Z,2.55
2022-09-01T06:42:37.884Z,2.42
2022-09-01T06:47:39.566Z,2.80
2022-09-01T06:58:08.328Z,3.00
2022-09-01T07:03:14.547Z,1.90
2022-09-01T07:08:22.171Z,2.10
2022-09-01T07:13:25.493Z,2.40
2022-09-01T07:18:29.248Z,2.33
2022-09-01T07:23:46.210Z,2.00
2022-09-01T07:29:01.052Z,2.20
2022-09-01T07:44:50.406Z,2.15
2022-09-01T07:50:12.362Z,2.28
2022-09-01T07:55:16.793Z,1.73
2022-09-01T08:00:18.487Z,1.38
2022-09-01T08:05:26.442Z,1.55
2022-09-01T08:10:28.612Z,1.50
2022-09-01T08:20:52.016Z,1.38
2022-09-01T08:25:54.427Z,1.60
2022-09-01T08:30:56.381Z,1.70
2022-09-01T08:35:58.081Z,1.30
2022-09-01T08:41:01.033Z,1.20
2022-09-01T08:46:14.139Z,1.38
2022-09-01T08:51:54.122Z,1.20
2022-09-01T08:57:00.976Z,1.10
2022-09-01T09:02:34.169Z,1.30
2022-09-01T09:08:06.485Z,1.15
2022-09-01T09:13:40.814Z,1.15
2022-09-01T09:18:55.799Z,1.00
2022-09-01T09:24:21.578Z,1.20
2022-09-01T09:29:25.101Z,1.20
2022-09-01T09:34:33.656Z,1.10
2022-09-01T09:44:57.681Z,1.00
2022-09-01T09:50:31.884Z,1.20
2022-09-01T09:55:33.552Z,1.30
2022-09-01T10:00:36.205Z,0.82
2022-09-01T10:05:38.063Z,1.10
2022-09-01T10:10:57.557Z,0.88
2022-09-01T10:16:03.724Z,1.05
2022-09-01T10:21:24.164Z,1.10
2022-09-01T10:26:33.895Z,0.70
2022-09-01T10:31:37.065Z,1.00
2022-09-01T10:36:42.084Z,0.90
2022-09-01T10:42:00.682Z,1.00
2022-09-01T10:47:16.469Z,0.95
2022-09-01T10:52:53.845Z,0.80
2022-09-01T11:03:56.185Z,0.80
2022-09-01T11:09:06.711Z,0.73
2022-09-01T11:14:23.676Z,1.00
2022-09-01T11:19:50.184Z,0.90
2022-09-01T11:25:12.039Z,0.63
2022-09-01T11:30:18.282Z,0.65
2022-09-01T11:35:22.799Z,0.45
2022-09-01T11:40:29.636Z,0.77
2022-09-01T11:45:44.775Z,0.52
2022-09-01T11:50:59.184Z,0.73
2022-09-01T11:56:18.151Z,0.50
2022-09-01T12:01:23.324Z,0.70
2022-09-01T12:06:29.650Z,0.60
2022-09-01T12:11:33.705Z,0.30
2022-09-01T12:16:37.965Z,0.50
2022-09-01T12:21:43.996Z,0.40
2022-09-01T12:26:54.647Z,1.33
2022-09-01T12:31:56.895Z,0.40
2022-09-01T12:37:07.686Z,0.50
2022-09-01T12:42:20.669Z,0.60
2022-09-01T12:47:34.210Z,0.40
2022-09-01T12:52:48.551Z,0.82
2022-09-01T12:57:53.504Z,0.90
2022-09-01T13:03:21.665Z,0.70
2022-09-01T13:13:35.437Z,0.70
2022-09-01T13:23:58.834Z,0.60
2022-09-01T13:29:00.987Z,0.70
2022-09-01T13:34:10.765Z,0.60
2022-09-01T13:39:24.321Z,0.50
2022-09-01T13:44:25.961Z,0.60
2022-09-01T13:50:04.646Z,0.70
2022-09-01T13:54:49.113Z,0.98
2022-09-01T13:59:51.179Z,0.75
2022-09-01T14:04:52.984Z,0.60
2022-09-01T14:09:55.148Z,0.70
2022-09-01T14:15:15.942Z,0.75
2022-09-01T14:20:24.876Z,0.88
2022-09-01T14:25:26.807Z,0.70
2022-09-01T14:30:31.614Z,0.47
2022-09-01T14:35:34.288Z,0.60
2022-09-01T14:40:38.111Z,0.40
2022-09-01T14:45:41.045Z,0.55
2022-09-01T14:50:46.297Z,0.80
2022-09-01T14:55:49.596Z,0.50
2022-09-01T15:01:00.420Z,0.60
2022-09-01T15:06:13.119Z,0.40
2022-09-01T15:11:18.267Z,0.70
2022-09-01T15:16:23.174Z,0.60
2022-09-01T15:21:32.144Z,0.70
2022-09-01T15:26:35.246Z,0.52
2022-09-01T15:31:36.891Z,0.68
2022-09-01T15:36:40.967Z,0.50
2022-09-01T15:41:44.204Z,0.70
2022-09-01T15:46:45.949Z,0.60
2022-09-01T15:51:47.605Z,0.50
2022-09-01T15:56:49.828Z,0.52
2022-09-01T16:01:53.302Z,0.70
2022-09-01T16:06:56.710Z,0.70
2022-09-01T16:11:58.418Z,0.60
2022-09-01T16:17:21.492Z,0.80
2022-09-01T16:22:32.487Z,0.47
2022-09-01T16:27:39.054Z,0.70
2022-09-01T16:32:45.417Z,0.60
2022-09-01T16:38:15.188Z,0.60
2022-09-01T16:43:34.723Z,0.70
2022-09-01T16:48:54.813Z,0.65
2022-09-01T16:54:10.949Z,0.50
2022-09-01T16:59:12.555Z,0.50
2022-09-01T17:04:28.894Z,0.50
2022-09-01T17:09:34.947Z,0.60
2022-09-01T17:14:48.351Z,0.63
2022-09-01T17:19:52.718Z,0.50
2022-09-01T17:30:07.278Z,1.00
2022-09-01T17:35:36.865Z,0.80
2022-09-01T17:41:16.089Z,0.90
2022-09-01T17:46:34.376Z,1.13
2022-09-01T17:51:49.326Z,1.27
2022-09-01T17:57:11.187Z,1.00
2022-09-01T18:02:29.180Z,1.13
2022-09-01T18:08:18.593Z,0.90
2022-09-01T18:13:52.889Z,0.85
2022-09-01T18:19:02.528Z,0.98
2022-09-01T18:24:15.700Z,1.15
2022-09-01T18:29:17.896Z,1.13
2022-09-01T18:34:26.885Z,1.20
2022-09-01T18:39:40.799Z,1.30
2022-09-01T18:45:11.232Z,1.20
2022-09-01T18:50:25.981Z,1.30
2022-09-01T18:55:50.311Z,0.93
2022-09-01T19:01:13.757Z,0.95
2022-09-01T19:06:18.161Z,1.13
2022-09-01T19:11:22.459Z,1.20
2022-09-01T19:16:45.398Z,1.20
2022-09-01T19:21:51.835Z,1.40
2022-09-01T19:27:08.074Z,1.30
2022-09-01T19:32:18.217Z,1.38
2022-09-01T19:37:20.176Z,1.30
2022-09-01T19:42:55.157Z,1.35
2022-09-01T19:48:08.659Z,1.52
2022-09-01T19:53:15.009Z,1.63
2022-09-01T19:58:25.071Z,1.60
2022-09-01T20:03:33.875Z,1.50
2022-09-01T20:13:58.156Z,1.55
2022-09-01T20:19:16.067Z,1.83
2022-09-01T20:24:34.367Z,2.10
2022-09-01T20:29:51.468Z,2.30
2022-09-01T20:34:58.424Z,2.00
2022-09-01T20:40:06.594Z,2.30
2022-09-01T20:45:23.000Z,1.80
2022-09-01T20:50:50.776Z,1.95
2022-09-01T20:55:57.052Z,1.83
2022-09-01T21:01:15.546Z,1.90
2022-09-01T21:06:50.659Z,1.90
2022-09-01T21:12:06.196Z,1.67
2022-09-01T21:17:15.514Z,2.00
2022-09-01T21:22:22.231Z,2.15
2022-09-01T21:27:36.983Z,2.00
2022-09-01T21:32:39.743Z,2.08
2022-09-01T21:37:41.659Z,2.15
2022-09-01T21:43:05.891Z,2.10
2022-09-01T21:48:08.125Z,2.10
2022-09-01T21:53:10.389Z,2.17
2022-09-01T21:58:12.215Z,2.15
2022-09-01T22:03:14.058Z,2.13
2022-09-01T22:08:17.215Z,1.73
2022-09-01T22:13:22.828Z,1.95
2022-09-01T22:18:24.489Z,2.13
2022-09-01T22:23:26.077Z,2.30
2022-09-01T22:28:28.246Z,2.30
2022-09-01T22:33:30.843Z,2.28
2022-09-01T22:38:32.541Z,2.35
2022-09-01T22:43:34.244Z,2.25
2022-09-01T22:48:36.095Z,2.20
2022-09-01T22:53:40.661Z,2.00
2022-09-01T22:58:42.546Z,2.45
2022-09-01T23:03:45.063Z,2.50
2022-09-01T23:08:47.376Z,2.13
2022-09-01T23:13:49.032Z,2.30
2022-09-01T23:18:51.734Z,1.95
2022-09-01T23:23:58.554Z,2.60
2022-09-01T23:29:01.107Z,2.97
2022-09-01T23:34:06.028Z,3.45
2022-09-01T23:39:07.874Z,2.28
2022-09-01T23:44:11.631Z,2.53
2022-09-01T23:49:15.460Z,2.78
2022-09-01T23:54:17.100Z,2.58
2022-09-01T23:59:22.883Z,3.20
